Time;durP1;ratioP1;P1;durP2;ratioP2;P2;SDS_P1;SDS_P2;PMS_P1;PMS_P2;Temp;Humidity;BMP_temperature;BMP_pressure;BME280_temperature;BME280_humidity;BME280_pressure;Samples;Min_cycle;Max_cycle;Signal;HPM_P1;HPM_P2
2023/03/10 00:02:29;;;;;;;2.08;0.55;;;10.90;99.90;;;;;;6214178;28;20049;-77
2023/03/10 00:05:31;;;;;;;3.50;0.80;;;10.90;99.90;;;;;;6213053;28;20065;-77
2023/03/10 00:08:33;;;;;;;0.95;0.73;;;10.90;99.90;;;;;;6213702;28;20037;-78
2023/03/10 00:11:34;;;;;;;1.08;0.65;;;10.90;99.90;;;;;;6213576;28;20423;-78
2023/03/10 00:14:38;;;;;;;1.35;1.20;;;10.80;99.90;;;;;;6219009;28;20589;-76
2023/03/10 00:17:39;;;;;;;4.57;1.10;;;10.80;99.90;;;;;;6261106;23;20046;-78
2023/03/10 00:20:41;;;;;;;0.93;0.85;;;10.70;99.90;;;;;;6248231;28;20057;-78
2023/03/10 00:23:43;;;;;;;5.32;1.30;;;10.50;99.90;;;;;;6247868;28;20049;-78
2023/03/10 00:26:45;;;;;;;4.45;1.02;;;10.50;99.90;;;;;;6249051;28;20060;-78
2023/03/10 00:29:51;;;;;;;1.40;0.98;;;10.50;99.90;;;;;;6249733;28;20057;-78
2023/03/10 00:32:52;;;;;;;2.47;1.02;;;10.40;99.90;;;;;;6249661;28;20041;-78
2023/03/10 00:36:02;;;;;;;2.95;1.15;;;10.30;99.90;;;;;;6249870;28;20496;-78
2023/03/10 00:39:04;;;;;;;1.15;0.90;;;10.20;99.90;;;;;;6249820;28;20125;-78
2023/03/10 00:42:06;;;;;;;3.10;1.00;;;10.20;99.90;;;;;;6250275;28;20046;-78
2023/03/10 00:45:10;;;;;;;3.92;1.63;;;10.10;99.90;;;;;;6249154;28;20049;-78
2023/03/10 00:48:11;;;;;;;2.38;0.85;;;10.00;99.90;;;;;;6249741;28;20049;-78
2023/03/10 00:51:13;;;;;;;4.85;1.10;;;10.00;99.90;;;;;;6248854;28;20056;-78
2023/03/10 00:54:15;;;;;;;4.95;1.10;;;9.90;99.90;;;;;;6247812;28;20064;-78
2023/03/10 00:57:16;;;;;;;1.85;1.10;;;9.90;99.90;;;;;;6247742;28;20049;-78
2023/03/10 01:00:21;;;;;;;1.98;0.90;;;9.80;99.90;;;;;;6248721;28;20111;-78
2023/03/10 01:03:24;;;;;;;1.38;0.93;;;9.80;99.90;;;;;;6248231;28;20046;-78
2023/03/10 01:06:26;;;;;;;0.90;0.73;;;9.80;99.90;;;;;;6248888;28;20060;-78
2023/03/10 01:09:27;;;;;;;3.03;0.85;;;9.80;99.90;;;;;;6248551;28;20064;-78
2023/03/10 01:12:29;;;;;;;6.18;1.20;;;9.80;99.90;;;;;;6248290;28;20057;-78
2023/03/10 01:15:32;;;;;;;7.38;1.38;;;9.70;99.90;;;;;;6247762;28;20052;-78
2023/03/10 01:18:34;;;;;;;2.83;1.10;;;9.70;99.90;;;;;;6244582;28;20045;-77
2023/03/10 01:21:38;;;;;;;4.50;1.35;;;9.70;99.90;;;;;;6220603;28;20049;-78
2023/03/10 01:24:39;;;;;;;4.30;1.30;;;9.60;99.90;;;;;;6223131;28;20045;-78
2023/03/10 01:27:42;;;;;;;3.95;1.20;;;9.70;99.90;;;;;;6223218;28;20057;-78
2023/03/10 01:30:45;;;;;;;4.40;1.30;;;9.60;99.90;;;;;;6223017;28;20052;-78
2023/03/10 01:33:47;;;;;;;2.08;1.30;;;9.60;99.90;;;;;;6223754;28;20061;-77
2023/03/10 01:36:49;;;;;;;4.30;1.67;;;9.60;99.90;;;;;;6222739;28;20042;-78
2023/03/10 01:39:51;;;;;;;5.43;1.45;;;9.60;99.90;;;;;;6223694;28;20129;-78
2023/03/10 01:42:52;;;;;;;3.63;1.25;;;9.60;99.90;;;;;;6223685;28;20428;-78
2023/03/10 01:46:37;;;;;;;4.35;1.30;;;9.60;99.90;;;;;;6223913;28;20076;-78
2023/03/10 01:49:41;;;;;;;4.25;1.05;;;9.70;99.90;;;;;;6222873;28;20061;-77
2023/03/10 01:52:46;;;;;;;6.82;1.75;;;9.70;99.90;;;;;;6221972;28;20050;-78
2023/03/10 01:55:52;;;;;;;5.60;2.30;;;9.70;99.90;;;;;;6222006;28;20038;-77
2023/03/10 01:58:54;;;;;;;2.15;1.35;;;9.80;99.90;;;;;;6222613;28;20420;-78
2023/03/10 02:02:00;;;;;;;2.70;1.42;;;9.80;99.90;;;;;;6223100;28;20515;-78
2023/03/10 02:05:02;;;;;;;2.58;1.20;;;9.90;99.90;;;;;;6223672;28;20053;-77
2023/03/10 02:08:05;;;;;;;2.05;1.35;;;9.90;99.90;;;;;;6214780;28;20049;-77
2023/03/10 02:11:07;;;;;;;2.50;1.15;;;10.00;99.90;;;;;;6203530;28;20521;-78
2023/03/10 02:14:09;;;;;;;2.20;1.95;;;10.00;99.90;;;;;;6203817;28;20050;-78
2023/03/10 02:17:15;;;;;;;1.42;1.08;;;10.00;99.90;;;;;;6202735;28;20050;-78
2023/03/10 02:20:27;;;;;;;1.63;1.10;;;10.00;99.90;;;;;;6202618;28;20050;-78
2023/03/10 02:23:36;;;;;;;2.08;1.05;;;10.00;99.90;;;;;;6202893;28;20046;-78
2023/03/10 02:26:45;;;;;;;2.00;1.00;;;10.00;99.90;;;;;;6203045;28;20073;-78
2023/03/10 02:29:53;;;;;;;2.97;1.10;;;10.00;99.90;;;;;;6203766;28;20069;-78
2023/03/10 02:32:58;;;;;;;1.60;1.10;;;10.00;99.90;;;;;;6203418;28;20069;-78
2023/03/10 02:36:03;;;;;;;0.70;0.70;;;10.00;99.90;;;;;;6202558;28;20049;-78
2023/03/10 02:39:05;;;;;;;1.35;0.95;;;10.00;99.90;;;;;;6203214;28;20046;-78
2023/03/10 02:42:07;;;;;;;1.80;1.13;;;10.10;99.90;;;;;;6203070;28;20046;-77
2023/03/10 02:45:10;;;;;;;4.90;0.93;;;10.10;99.90;;;;;;6203498;28;20050;-78
2023/03/10 02:48:14;;;;;;;1.80;0.90;;;10.20;99.90;;;;;;6202729;28;20054;-78
2023/03/10 02:51:21;;;;;;;1.63;1.08;;;10.20;99.90;;;;;;6202636;28;20043;-77
2023/03/10 02:54:23;;;;;;;3.87;0.70;;;10.20;99.90;;;;;;6203220;28;20050;-77
2023/03/10 02:57:25;;;;;;;3.45;1.02;;;10.30;99.90;;;;;;6202650;28;20576;-77
2023/03/10 03:00:28;;;;;;;1.63;0.85;;;10.40;99.90;;;;;;6203663;28;20062;-78
2023/03/10 03:03:29;;;;;;;1.85;0.90;;;10.50;99.90;;;;;;6203004;28;20050;-78
2023/03/10 03:06:31;;;;;;;3.70;0.77;;;10.50;99.90;;;;;;6204310;28;20061;-78
2023/03/10 03:09:33;;;;;;;1.27;0.90;;;10.50;99.90;;;;;;6203128;28;20062;-78
2023/03/10 03:12:35;;;;;;;2.97;0.50;;;10.50;99.90;;;;;;6203012;28;20054;-78
2023/03/10 03:15:38;;;;;;;1.15;1.05;;;10.50;99.90;;;;;;6202838;28;20039;-78
2023/03/10 03:18:40;;;;;;;1.00;0.77;;;10.50;99.90;;;;;;6201540;28;20246;-78
2023/03/10 03:21:48;;;;;;;2.53;0.70;;;10.60;99.90;;;;;;6204392;28;20050;-78
2023/03/10 03:24:50;;;;;;;1.75;0.70;;;10.60;99.90;;;;;;6203479;28;20053;-78
2023/03/10 03:27:52;;;;;;;4.68;1.27;;;10.60;99.90;;;;;;6205235;28;20050;-78
2023/03/10 03:30:55;;;;;;;1.90;0.88;;;10.60;99.90;;;;;;6203211;28;20516;-78
2023/03/10 03:33:56;;;;;;;0.95;0.80;;;10.60;99.90;;;;;;6185035;28;20057;-77
2023/03/10 03:36:58;;;;;;;1.55;0.85;;;10.60;99.90;;;;;;6176724;28;20042;-78
2023/03/10 03:40:00;;;;;;;3.63;1.25;;;10.60;99.90;;;;;;6176913;28;20053;-78
2023/03/10 03:43:02;;;;;;;1.40;0.90;;;10.60;99.90;;;;;;6176097;28;20417;-77
2023/03/10 03:46:05;;;;;;;3.88;1.25;;;10.50;99.90;;;;;;6176652;28;20047;-78
2023/03/10 03:49:07;;;;;;;0.70;0.60;;;10.50;99.90;;;;;;6178410;28;20066;-78
2023/03/10 03:52:09;;;;;;;1.10;0.55;;;10.60;99.90;;;;;;6176740;28;20051;-78
2023/03/10 03:55:11;;;;;;;0.98;0.80;;;10.60;99.90;;;;;;6176721;28;20046;-77
2023/03/10 03:58:13;;;;;;;5.85;0.88;;;10.60;99.90;;;;;;6176270;28;20054;-77
2023/03/10 04:01:16;;;;;;;1.88;0.55;;;10.60;99.90;;;;;;6176207;28;20049;-78
2023/03/10 04:04:18;;;;;;;2.35;0.63;;;10.60;99.90;;;;;;6176221;28;20067;-77
2023/03/10 04:07:20;;;;;;;1.98;0.73;;;10.60;99.90;;;;;;6175954;28;20042;-78
2023/03/10 04:10:23;;;;;;;2.08;0.55;;;10.50;99.90;;;;;;6176730;28;20058;-77
2023/03/10 04:13:24;;;;;;;0.60;0.50;;;10.50;99.90;;;;;;6178606;28;20042;-78
2023/03/10 04:16:27;;;;;;;8.13;1.00;;;10.50;99.90;;;;;;6175705;28;20057;-77
2023/03/10 04:19:29;;;;;;;0.98;0.73;;;10.40;99.90;;;;;;6175970;28;20046;-78
2023/03/10 04:22:31;;;;;;;4.22;0.93;;;10.50;99.90;;;;;;6178040;28;20054;-78
2023/03/10 04:25:33;;;;;;;1.58;0.90;;;10.50;99.90;;;;;;6177110;28;20054;-78
2023/03/10 04:28:35;;;;;;;6.68;0.90;;;10.50;99.90;;;;;;6176078;28;20058;-77
2023/03/10 04:31:38;;;;;;;4.35;3.00;;;10.50;99.90;;;;;;6175630;28;20050;-77
2023/03/10 04:34:40;;;;;;;3.33;0.80;;;10.50;99.90;;;;;;6175576;28;20055;-78
2023/03/10 04:37:43;;;;;;;6.35;1.15;;;10.40;99.90;;;;;;6175872;28;20050;-77
2023/03/10 04:40:45;;;;;;;6.20;1.20;;;10.30;99.90;;;;;;6176042;28;20051;-78
2023/03/10 04:43:47;;;;;;;2.60;1.30;;;10.20;99.90;;;;;;6175894;28;20042;-77
2023/03/10 04:46:50;;;;;;;1.33;0.82;;;10.20;99.90;;;;;;6174620;28;20055;-78
2023/03/10 04:49:51;;;;;;;1.05;0.95;;;10.20;99.90;;;;;;6175568;28;20055;-77
2023/03/10 04:52:53;;;;;;;2.05;1.10;;;10.20;99.90;;;;;;6175276;28;20042;-78
2023/03/10 04:55:55;;;;;;;2.85;0.90;;;10.20;99.90;;;;;;6174868;28;20047;-78
2023/03/10 04:58:57;;;;;;;1.63;1.52;;;10.20;99.90;;;;;;6176526;28;20050;-78
2023/03/10 05:02:00;;;;;;;5.60;1.73;;;10.10;99.90;;;;;;6176700;28;20051;-77
2023/03/10 05:05:02;;;;;;;1.50;1.02;;;10.10;99.90;;;;;;6175709;28;20058;-78
2023/03/10 05:08:05;;;;;;;3.42;1.35;;;10.10;99.90;;;;;;6175343;28;20049;-77
2023/03/10 05:11:07;;;;;;;3.90;1.38;;;10.10;99.90;;;;;;6175166;28;20039;-77
2023/03/10 05:14:11;;;;;;;1.27;1.10;;;10.10;99.90;;;;;;6175360;28;20055;-78
2023/03/10 05:17:14;;;;;;;3.47;1.30;;;10.10;99.90;;;;;;6174532;28;20547;-78
2023/03/10 05:20:15;;;;;;;3.20;1.00;;;10.10;99.90;;;;;;6174873;28;20050;-77
2023/03/10 05:23:17;;;;;;;2.85;0.80;;;10.10;99.90;;;;;;6175262;28;20049;-78
2023/03/10 05:26:19;;;;;;;3.90;1.05;;;10.10;99.90;;;;;;6193137;28;20062;-78
2023/03/10 05:29:20;;;;;;;1.83;1.20;;;10.20;99.90;;;;;;6174670;28;20078;-78
2023/03/10 05:32:23;;;;;;;2.97;1.27;;;10.30;99.90;;;;;;6175115;28;20050;-78
2023/03/10 05:51:25;;;;;;;;;;;10.50;99.90;;;;;;5908966;30;20052;-78
2023/03/10 05:58:41;;;;;;;5.03;1.20;;;10.80;99.90;;;;;;6074953;29;20056;-77
2023/03/10 06:02:02;;;;;;;2.83;1.10;;;10.90;99.90;;;;;;6164122;28;20058;-77
2023/03/10 06:09:07;;;;;;;;;;;;;;;;;;;;;
2023/03/10 06:12:13;;;;;;;3.13;0.95;;;10.80;99.90;;;;;;6119788;28;20051;-77
2023/03/10 06:15:52;;;;;;;3.55;1.33;;;10.80;99.90;;;;;;6160729;28;20051;-77
2023/03/10 06:18:55;;;;;;;2.63;1.13;;;10.80;99.90;;;;;;6160882;28;20053;-76
2023/03/10 06:22:06;;;;;;;1.40;1.17;;;10.80;99.90;;;;;;6172601;28;20186;-76
2023/03/10 06:25:13;;;;;;;4.38;0.85;;;10.70;99.90;;;;;;6161873;28;20055;-76
2023/03/10 06:28:15;;;;;;;1.75;1.10;;;10.70;99.90;;;;;;6161529;28;20544;-76
2023/03/10 06:31:23;;;;;;;4.38;1.10;;;10.60;99.90;;;;;;6172056;28;20170;-76
2023/03/10 06:34:24;;;;;;;;;;;10.50;99.90;;;;;;6173202;28;20190;-76
2023/03/10 06:37:26;;;;;;;1.13;0.80;;;10.50;99.90;;;;;;6171892;28;20012;-76
2023/03/10 06:40:28;;;;;;;1.27;0.70;;;10.50;99.90;;;;;;6171999;28;20058;-77
2023/03/10 06:43:31;;;;;;;1.10;0.60;;;10.60;99.90;;;;;;6172539;28;20051;-76
2023/03/10 06:46:34;;;;;;;0.90;0.47;;;10.60;99.90;;;;;;6172124;28;20490;-76
2023/03/10 06:49:36;;;;;;;1.40;1.30;;;10.60;99.90;;;;;;6171931;28;20533;-76
2023/03/10 06:52:38;;;;;;;2.85;0.60;;;10.70;99.90;;;;;;6173683;28;20046;-77
2023/03/10 06:55:39;;;;;;;1.77;0.75;;;10.80;99.90;;;;;;6175142;28;20047;-77
2023/03/10 06:58:42;;;;;;;4.22;1.92;;;11.00;99.90;;;;;;6166194;28;20497;-76
2023/03/10 07:01:46;;;;;;;1.17;0.55;;;11.10;99.90;;;;;;6194286;28;20047;-76
2023/03/10 07:08:03;;;;;;;2.15;0.90;;;11.50;99.90;;;;;;6165103;28;20047;-75
2023/03/10 07:11:05;;;;;;;0.95;0.40;;;11.70;99.90;;;;;;6166308;28;20043;-77
2023/03/10 07:14:07;;;;;;;0.60;0.60;;;11.80;99.90;;;;;;6163043;28;20035;-77
2023/03/10 07:17:10;;;;;;;4.53;0.65;;;11.80;99.90;;;;;;6163555;28;20066;-77
2023/03/10 07:20:12;;;;;;;1.85;1.27;;;11.70;99.90;;;;;;6166362;28;20051;-76
2023/03/10 07:23:15;;;;;;;4.97;0.93;;;11.30;99.90;;;;;;6167349;28;20066;-80
2023/03/10 07:26:18;;;;;;;2.83;0.60;;;10.90;99.90;;;;;;6163787;28;20058;-76
2023/03/10 07:29:20;;;;;;;2.92;0.80;;;10.50;99.90;;;;;;6162270;28;20536;-75
2023/03/10 07:32:23;;;;;;;1.48;0.65;;;10.10;99.90;;;;;;6163372;28;20062;-77
2023/03/10 07:35:24;;;;;;;2.13;0.52;;;9.90;99.90;;;;;;6164751;28;20066;-75
2023/03/10 07:38:26;;;;;;;4.43;1.10;;;9.60;99.90;;;;;;6163000;28;20426;-75
2023/03/10 07:41:28;;;;;;;1.25;1.15;;;9.20;99.90;;;;;;6165347;28;20062;-76
2023/03/10 07:44:30;;;;;;;2.67;1.13;;;9.00;99.90;;;;;;6165554;28;20050;-76
2023/03/10 07:47:32;;;;;;;7.68;1.55;;;8.90;99.90;;;;;;6166433;28;20051;-76
2023/03/10 07:50:34;;;;;;;4.75;1.00;;;8.80;99.90;;;;;;6165169;28;20055;-76
2023/03/10 07:53:36;;;;;;;8.27;1.65;;;8.70;99.90;;;;;;6165312;28;20134;-75
2023/03/10 07:56:38;;;;;;;15.40;3.08;;;8.60;99.90;;;;;;6163730;28;20038;-76
2023/03/10 07:59:41;;;;;;;6.63;1.58;;;8.50;99.90;;;;;;6161444;28;20058;-75
2023/03/10 08:02:44;;;;;;;9.07;2.28;;;8.50;99.90;;;;;;6163390;28;20043;-75
2023/03/10 08:05:46;;;;;;;15.00;3.15;;;8.50;99.90;;;;;;6163963;28;20054;-77
2023/03/10 08:08:48;;;;;;;12.43;1.75;;;8.50;99.90;;;;;;6165040;28;20618;-76
2023/03/10 08:11:49;;;;;;;11.15;1.88;;;8.50;99.90;;;;;;6166896;28;20043;-76
2023/03/10 08:14:52;;;;;;;8.75;1.33;;;8.50;99.90;;;;;;6167414;28;20054;-76
2023/03/10 08:17:55;;;;;;;11.20;2.33;;;8.60;99.90;;;;;;6166962;28;20413;-77
2023/03/10 08:20:58;;;;;;;6.45;2.97;;;8.60;99.90;;;;;;6169002;28;20061;-77
2023/03/10 08:23:59;;;;;;;11.45;2.30;;;8.60;99.90;;;;;;6168479;28;20125;-77
2023/03/10 08:27:01;;;;;;;7.60;2.60;;;8.70;99.90;;;;;;6167308;28;20051;-77
2023/03/10 08:30:03;;;;;;;14.10;6.38;;;8.70;99.90;;;;;;6169009;28;20049;-76
2023/03/10 08:33:07;;;;;;;4.40;1.63;;;8.70;99.90;;;;;;6168362;28;20405;-77
2023/03/10 08:36:11;;;;;;;16.13;1.70;;;8.70;99.90;;;;;;6167452;28;20078;-76
2023/03/10 08:39:13;;;;;;;6.32;1.55;;;8.60;99.90;;;;;;6167146;28;20047;-76
2023/03/10 08:42:14;;;;;;;11.63;2.22;;;8.70;99.90;;;;;;6167728;28;20117;-77
2023/03/10 08:45:16;;;;;;;4.28;1.42;;;8.80;99.90;;;;;;6166554;28;20506;-76
2023/03/10 08:48:19;;;;;;;6.18;1.90;;;8.80;99.90;;;;;;6168695;28;20058;-77
2023/03/10 08:51:22;;;;;;;5.65;1.73;;;8.80;99.90;;;;;;6168621;28;20087;-75
2023/03/10 08:54:23;;;;;;;4.38;1.65;;;8.80;99.90;;;;;;6168236;28;20058;-77
2023/03/10 08:57:25;;;;;;;6.25;2.13;;;8.90;99.90;;;;;;6165177;28;20045;-75
2023/03/10 09:00:27;;;;;;;12.85;1.67;;;8.80;99.90;;;;;;6166180;28;20525;-77
2023/03/10 09:03:30;;;;;;;11.38;2.13;;;8.90;99.90;;;;;;6166615;28;20051;-77
2023/03/10 09:06:32;;;;;;;4.10;1.58;;;9.00;99.90;;;;;;6166679;28;20465;-76
2023/03/10 09:09:34;;;;;;;11.05;3.40;;;9.00;99.90;;;;;;6166377;28;20051;-76
2023/03/10 09:12:36;;;;;;;9.93;1.88;;;9.00;99.90;;;;;;6167285;28;20053;-77
2023/03/10 09:15:40;;;;;;;5.03;1.70;;;9.10;99.90;;;;;;6165404;28;20485;-76
2023/03/10 09:18:43;;;;;;;6.32;1.23;;;9.10;99.90;;;;;;6167172;28;20054;-76
2023/03/10 09:21:46;;;;;;;3.67;1.77;;;9.20;99.90;;;;;;6167369;28;20043;-76
2023/03/10 09:24:48;;;;;;;14.85;1.50;;;9.30;99.90;;;;;;6168353;28;20421;-77
2023/03/10 09:27:49;;;;;;;11.43;2.28;;;9.40;99.90;;;;;;6165601;28;20047;-77
2023/03/10 09:30:53;;;;;;;10.23;1.58;;;9.50;99.90;;;;;;6166561;28;20063;-77
2023/03/10 09:33:56;;;;;;;13.27;1.85;;;9.50;99.90;;;;;;6167715;28;20490;-76
2023/03/10 09:36:58;;;;;;;6.80;2.45;;;9.60;99.90;;;;;;6168294;28;20051;-76
2023/03/10 09:40:00;;;;;;;8.90;1.58;;;9.70;99.90;;;;;;6166054;28;20047;-76
2023/03/10 09:43:04;;;;;;;4.75;1.98;;;9.70;99.90;;;;;;6166293;28;20043;-76
2023/03/10 09:46:14;;;;;;;5.13;1.80;;;9.80;99.90;;;;;;6165157;28;20054;-76
2023/03/10 09:49:26;;;;;;;11.85;1.85;;;9.80;99.90;;;;;;6167425;28;20453;-77
2023/03/10 09:52:37;;;;;;;5.30;1.92;;;9.80;99.90;;;;;;6167793;28;20552;-75
2023/03/10 09:55:42;;;;;;;7.70;1.88;;;9.90;99.90;;;;;;6166133;28;20047;-77
2023/03/10 09:58:47;;;;;;;5.20;2.05;;;9.90;99.90;;;;;;6167413;28;20063;-77
2023/03/10 10:01:50;;;;;;;8.32;2.08;;;9.90;99.90;;;;;;6167034;28;20425;-77
2023/03/10 10:04:56;;;;;;;7.43;2.15;;;9.80;99.90;;;;;;6165992;28;20058;-76
2023/03/10 10:08:01;;;;;;;10.10;1.65;;;9.80;99.90;;;;;;6164476;28;20061;-76
2023/03/10 10:11:04;;;;;;;8.70;1.50;;;9.80;99.90;;;;;;6164597;28;20505;-77
2023/03/10 10:14:15;;;;;;;5.30;2.22;;;9.80;99.90;;;;;;6165168;28;20050;-76
2023/03/10 10:17:25;;;;;;;11.20;2.85;;;9.80;99.90;;;;;;6164840;28;20053;-76
2023/03/10 10:20:33;;;;;;;11.13;1.92;;;9.90;99.90;;;;;;6164819;28;20074;-75
2023/03/10 10:23:41;;;;;;;8.30;2.63;;;9.90;99.90;;;;;;6163674;28;20047;-75
2023/03/10 10:26:42;;;;;;;3.30;1.65;;;10.10;99.90;;;;;;6165479;28;20086;-76
2023/03/10 10:29:46;;;;;;;4.32;1.45;;;10.30;99.90;;;;;;6171618;28;20051;-77
2023/03/10 10:32:56;;;;;;;7.55;2.58;;;10.40;99.90;;;;;;6169820;28;20046;-78
2023/03/10 10:36:04;;;;;;;4.80;2.08;;;10.60;99.90;;;;;;6166515;28;20056;-76
2023/03/10 10:39:24;;;;;;;6.28;1.75;;;10.60;99.90;;;;;;6168726;28;20122;-77
2023/03/10 10:42:27;;;;;;;8.05;1.70;;;10.40;99.90;;;;;;6166212;28;20055;-76
2023/03/10 10:45:33;;;;;;;11.70;2.30;;;10.40;99.90;;;;;;6168710;28;20054;-75
2023/03/10 10:48:40;;;;;;;17.63;2.50;;;10.60;99.90;;;;;;6169345;28;20054;-77
2023/03/10 10:51:55;;;;;;;9.67;2.33;;;10.60;99.90;;;;;;6170798;28;20061;-76
2023/03/10 10:54:58;;;;;;;10.48;1.75;;;10.80;99.90;;;;;;6168767;28;20039;-76
2023/03/10 10:58:02;;;;;;;5.55;1.67;;;10.90;99.90;;;;;;6168315;28;20058;-76
2023/03/10 11:01:06;;;;;;;4.03;1.05;;;10.80;99.90;;;;;;6170434;28;20418;-78
2023/03/10 11:04:12;;;;;;;6.50;1.55;;;10.70;99.90;;;;;;6169333;28;20039;-76
2023/03/10 11:07:20;;;;;;;5.68;1.45;;;10.60;99.90;;;;;;6165895;28;20039;-76
2023/03/10 11:10:28;;;;;;;6.03;1.80;;;10.60;99.90;;;;;;6164608;28;20121;-77
2023/03/10 11:13:37;;;;;;;8.45;2.00;;;10.60;99.90;;;;;;6166673;28;20054;-77
2023/03/10 11:16:50;;;;;;;10.20;3.08;;;10.50;99.90;;;;;;6166604;28;20050;-76
2023/03/10 11:20:05;;;;;;;8.00;1.83;;;10.40;99.90;;;;;;6166638;28;20054;-75
2023/03/10 11:23:17;;;;;;;9.82;2.00;;;10.40;99.90;;;;;;6164872;28;20815;-77
2023/03/10 11:26:29;;;;;;;2.83;1.25;;;10.30;99.90;;;;;;6165996;28;20061;-78
2023/03/10 11:29:42;;;;;;;9.70;1.95;;;10.20;99.90;;;;;;6166044;28;20047;-77
2023/03/10 11:32:59;;;;;;;14.05;1.80;;;10.20;99.90;;;;;;6168925;28;20079;-77
2023/03/10 11:36:12;;;;;;;7.13;1.55;;;10.20;99.90;;;;;;6169102;28;20093;-76
2023/03/10 11:39:27;;;;;;;7.65;1.88;;;10.20;99.90;;;;;;6168320;28;20047;-77
2023/03/10 11:42:34;;;;;;;7.55;1.75;;;10.30;99.90;;;;;;6178555;28;20069;-76
2023/03/10 11:45:43;;;;;;;7.93;1.95;;;10.30;99.90;;;;;;6177864;28;20082;-76
2023/03/10 11:48:53;;;;;;;12.85;2.55;;;10.40;99.90;;;;;;6168119;28;20058;-76
2023/03/10 11:51:58;;;;;;;5.43;1.63;;;10.40;99.90;;;;;;6168640;28;20613;-77
2023/03/10 11:55:05;;;;;;;5.97;3.22;;;10.40;99.90;;;;;;6168144;28;21081;-77
2023/03/10 11:58:20;;;;;;;7.90;2.28;;;10.30;99.90;;;;;;6170406;28;20465;-76
2023/03/10 12:01:26;;;;;;;7.25;1.83;;;10.30;99.90;;;;;;6168178;28;20493;-77
2023/03/10 12:04:33;;;;;;;12.60;2.70;;;10.20;99.90;;;;;;6167829;28;20047;-76
2023/03/10 12:07:39;;;;;;;11.40;1.88;;;10.20;99.90;;;;;;6170596;28;20050;-76
2023/03/10 12:10:43;;;;;;;10.88;2.20;;;10.20;99.90;;;;;;6165500;28;20138;-77
2023/03/10 12:13:48;;;;;;;5.75;1.50;;;10.20;99.90;;;;;;6170470;28;20071;-77
2023/03/10 12:16:51;;;;;;;4.88;1.33;;;10.20;99.90;;;;;;6167417;28;20055;-76
2023/03/10 12:20:24;;;;;;;5.88;1.40;;;10.20;99.90;;;;;;6165322;28;20047;-76
2023/03/10 12:23:36;;;;;;;9.55;2.33;;;10.10;99.90;;;;;;6167338;28;20719;-76
2023/03/10 12:27:02;;;;;;;5.47;2.08;;;10.00;99.90;;;;;;6165012;28;20042;-76
2023/03/10 12:30:37;;;;;;;4.65;1.48;;;10.00;99.90;;;;;;6169415;28;20051;-76
2023/03/10 12:33:50;;;;;;;3.00;1.10;;;9.90;99.90;;;;;;6182248;28;20413;-77
2023/03/10 12:36:53;;;;;;;6.88;4.95;;;9.80;99.90;;;;;;6166550;28;20077;-75
2023/03/10 12:39:55;;;;;;;8.70;3.42;;;9.70;99.90;;;;;;6164838;28;20047;-76
2023/03/10 12:42:58;;;;;;;52.45;33.65;;;9.60;99.90;;;;;;6164503;28;20124;-74
2023/03/10 12:46:02;;;;;;;8.00;4.53;;;9.60;99.90;;;;;;6165782;28;20072;-76
2023/03/10 12:49:16;;;;;;;1.33;1.13;;;9.50;99.90;;;;;;6164937;28;20043;-76
2023/03/10 12:52:29;;;;;;;4.63;4.22;;;9.30;99.90;;;;;;6164175;28;20062;-77
2023/03/10 12:55:30;;;;;;;6.55;1.45;;;9.20;99.90;;;;;;6164403;28;20394;-78
2023/03/10 12:58:35;;;;;;;1.15;1.02;;;9.10;99.90;;;;;;6165340;28;20055;-76
2023/03/10 13:01:42;;;;;;;2.95;0.77;;;9.10;99.90;;;;;;6183028;28;20068;-76
2023/03/10 13:04:44;;;;;;;1.00;0.70;;;9.10;99.90;;;;;;6186740;28;22707;-76
2023/03/10 13:07:48;;;;;;;1.23;0.80;;;9.10;99.90;;;;;;6184829;28;20058;-76
2023/03/10 13:10:53;;;;;;;1.25;1.15;;;9.10;99.90;;;;;;6182467;28;20061;-76
2023/03/10 13:14:00;;;;;;;2.83;0.68;;;9.00;99.90;;;;;;6183460;28;20042;-76
2023/03/10 13:17:02;;;;;;;5.68;1.48;;;9.00;99.90;;;;;;6182874;28;20050;-76
2023/03/10 13:20:12;;;;;;;1.80;1.00;;;9.00;99.90;;;;;;6178769;28;20140;-76
2023/03/10 13:23:21;;;;;;;1.58;1.15;;;9.10;99.90;;;;;;6185497;28;20047;-77
2023/03/10 13:26:25;;;;;;;0.20;0.20;;;9.00;99.90;;;;;;6183178;28;20046;-80
2023/03/10 13:29:28;;;;;;;0.15;0.15;;;9.00;99.90;;;;;;6187244;28;20128;-76
2023/03/10 13:32:31;;;;;;;0.20;0.20;;;9.10;99.90;;;;;;6179472;28;20602;-76
2023/03/10 13:35:34;;;;;;;0.10;0.10;;;9.10;99.90;;;;;;6179653;28;20042;-74
2023/03/10 13:38:42;;;;;;;0.13;0.13;;;9.10;99.90;;;;;;6181960;28;20401;-74
2023/03/10 13:41:46;;;;;;;0.30;0.30;;;9.10;99.90;;;;;;6155558;28;20123;-77
2023/03/10 13:44:50;;;;;;;0.10;0.10;;;9.10;99.90;;;;;;6170995;28;20599;-77
2023/03/10 13:47:53;;;;;;;0.10;0.10;;;9.10;99.90;;;;;;6165396;28;20058;-74
2023/03/10 13:51:16;;;;;;;0.20;0.20;;;9.00;99.90;;;;;;6159512;28;20055;-78
2023/03/10 13:54:20;;;;;;;0.10;0.10;;;8.90;99.90;;;;;;6165588;28;20062;-77
2023/03/10 13:57:26;;;;;;;0.03;0.03;;;8.90;99.90;;;;;;6160472;28;20086;-77
2023/03/10 14:00:29;;;;;;;0.20;0.20;;;9.00;99.90;;;;;;6160462;28;20058;-76
2023/03/10 14:03:31;;;;;;;0.20;0.20;;;9.00;99.90;;;;;;6164025;28;20054;-77
2023/03/10 14:06:33;;;;;;;0.10;0.10;;;9.00;99.90;;;;;;6167443;28;20047;-77
2023/03/10 14:09:34;;;;;;;1.77;1.05;;;9.00;99.90;;;;;;6165012;28;20513;-77
2023/03/10 14:12:38;;;;;;;19.02;14.27;;;9.00;99.90;;;;;;6165745;28;20049;-76
2023/03/10 14:15:52;;;;;;;6.60;5.78;;;9.00;99.90;;;;;;6165244;28;20045;-77
2023/03/10 14:18:54;;;;;;;6.38;4.05;;;9.00;99.90;;;;;;6164964;28;20437;-74
2023/03/10 14:21:56;;;;;;;7.38;2.97;;;9.00;99.90;;;;;;6165412;28;20525;-76
2023/03/10 14:24:59;;;;;;;4.07;2.78;;;9.10;99.90;;;;;;6168141;28;20054;-75
2023/03/10 14:28:11;;;;;;;3.45;1.92;;;9.10;99.90;;;;;;6164932;28;20047;-76
2023/03/10 14:31:21;;;;;;;2.42;2.22;;;9.10;99.90;;;;;;6164913;28;20746;-76
2023/03/10 14:34:22;;;;;;;1.80;1.65;;;9.10;99.90;;;;;;6166381;28;20039;-77
2023/03/10 14:37:24;;;;;;;2.50;1.58;;;9.20;99.90;;;;;;6169649;28;20081;-76
2023/03/10 14:40:26;;;;;;;2.95;1.40;;;9.20;99.90;;;;;;6165878;28;20043;-78
2023/03/10 14:43:28;;;;;;;3.53;2.95;;;9.20;99.90;;;;;;6167655;28;20062;-78
2023/03/10 14:46:33;;;;;;;1.45;0.95;;;9.20;99.90;;;;;;6167086;28;20058;-78
2023/03/10 14:49:35;;;;;;;2.10;1.05;;;9.10;99.90;;;;;;6167178;28;20058;-78
2023/03/10 14:52:37;;;;;;;2.97;2.63;;;9.10;99.90;;;;;;6171795;28;20061;-78
2023/03/10 14:55:39;;;;;;;8.93;2.90;;;9.00;99.90;;;;;;6169081;28;20445;-77
2023/03/10 14:58:46;;;;;;;3.42;2.38;;;8.80;99.90;;;;;;6168670;28;20055;-77
2023/03/10 15:01:49;;;;;;;2.38;1.13;;;8.80;99.90;;;;;;6166158;28;20047;-76
2023/03/10 15:04:51;;;;;;;4.13;2.10;;;8.80;99.90;;;;;;6170891;28;20058;-77
2023/03/10 15:07:53;;;;;;;1.70;1.60;;;8.80;99.90;;;;;;6176060;28;20058;-76
2023/03/10 15:10:54;;;;;;;1.25;1.15;;;8.80;99.90;;;;;;6187051;28;20057;-76
2023/03/10 15:13:57;;;;;;;5.65;2.20;;;8.80;99.90;;;;;;6174120;28;20246;-77
2023/03/10 15:17:00;;;;;;;2.63;2.35;;;8.70;99.90;;;;;;6168175;28;20062;-77
2023/03/10 15:20:07;;;;;;;5.15;1.83;;;8.70;99.90;;;;;;6170915;28;20054;-78
2023/03/10 15:23:09;;;;;;;4.32;1.67;;;8.70;99.90;;;;;;6170384;28;20051;-77
2023/03/10 15:26:11;;;;;;;2.45;1.70;;;8.70;99.90;;;;;;6168145;28;20039;-78
2023/03/10 15:29:14;;;;;;;4.75;2.00;;;8.70;99.90;;;;;;6164738;28;20042;-77
2023/03/10 15:32:17;;;;;;;4.82;2.08;;;8.80;99.90;;;;;;6164985;28;20050;-78
2023/03/10 15:35:21;;;;;;;10.45;2.45;;;8.80;99.90;;;;;;6168812;28;20047;-77
2023/03/10 15:38:23;;;;;;;7.70;1.58;;;8.80;99.90;;;;;;6185645;28;20054;-80
2023/03/10 15:41:24;;;;;;;2.00;1.10;;;8.70;99.90;;;;;;6186093;28;20050;-77
2023/03/10 15:44:26;;;;;;;3.17;1.52;;;8.60;99.90;;;;;;6185763;28;20035;-77
2023/03/10 15:47:29;;;;;;;5.95;1.65;;;8.50;99.90;;;;;;6190258;28;20058;-77
2023/03/10 15:50:31;;;;;;;3.97;1.40;;;8.40;99.90;;;;;;6183213;28;20683;-77
2023/03/10 15:53:33;;;;;;;4.07;1.27;;;8.40;99.90;;;;;;6189678;28;20386;-79
2023/03/10 15:56:34;;;;;;;5.45;1.55;;;8.50;99.90;;;;;;6184967;28;20055;-78
2023/03/10 15:59:37;;;;;;;6.55;1.35;;;8.60;99.90;;;;;;6185490;28;20249;-77
2023/03/10 16:02:40;;;;;;;1.80;1.25;;;8.60;99.90;;;;;;6185541;28;20106;-77
2023/03/10 16:05:47;;;;;;;10.52;2.58;;;8.70;99.90;;;;;;6186112;28;20051;-78
2023/03/10 16:08:49;;;;;;;4.25;1.65;;;8.80;99.90;;;;;;6188838;28;20527;-78
2023/03/10 16:11:51;;;;;;;4.78;1.55;;;8.90;99.90;;;;;;6188339;28;20046;-78
2023/03/10 16:14:54;;;;;;;2.25;1.15;;;8.90;99.90;;;;;;6187238;28;20413;-79
2023/03/10 16:17:57;;;;;;;14.38;3.00;;;8.90;99.90;;;;;;6188694;28;20050;-79
2023/03/10 16:21:00;;;;;;;6.78;1.85;;;8.90;99.90;;;;;;6183693;28;20058;-76
2023/03/10 16:24:02;;;;;;;2.50;1.27;;;8.90;99.90;;;;;;6185197;28;20074;-77
2023/03/10 16:27:04;;;;;;;9.70;2.75;;;8.90;99.90;;;;;;6182283;28;20050;-77
2023/03/10 16:30:07;;;;;;;5.05;1.90;;;9.00;99.90;;;;;;6181427;28;20501;-78
2023/03/10 16:33:10;;;;;;;4.03;1.48;;;9.00;99.90;;;;;;6181415;28;20046;-77
2023/03/10 16:36:15;;;;;;;4.55;1.50;;;9.00;99.90;;;;;;6181931;28;20498;-77